CYZU

Whitecourt Airport

Whitecourt, Alberta, Canada
METAR CYZU 251400Z 27005KT 15SM FEW090 FEW210 02/01 A3010 RMK AC1CI1 SLP218
Observed Flight Rules
Sep-25 @ 14:00 UTC (an hour ago) Visual Flight Rules
Wind Visibility Clouds
270° at 5 knots 15 miles
  • Few at 9,000' AGL
  • Few at 21,000' AGL
Temperatures Readings
Current 2°C / 36°F
Dewpoint 1°C / 34°F
Humidity 93%
Altimeter 30.1" Hg
Pressure 1021.8 hPa
Elevation 785
METAR CYZU 251400Z 27005KT 15SM FEW090 FEW210 02/01 A3010 RMK AC1CI1 SLP218
Observed Flight Rules
Sep-25 @ 14:00 UTC
(an hour ago)
VFR
Wind Visibility
270° at 5 knots 15 miles
Clouds
  • Few at 9,000' AGL
  • Few at 21,000' AGL
Temperature Dewpoint
2°C / 36°F 1°C / 34°F
Humidity Altimeter Pressure
93% 30.1" Hg 1021.8 hPa